sensor_id;sensor_type;location;lat;lon;timestamp;pressure;altitude;pressure_sealevel;temperature;humidity
49461;BME280;35355;49.198;-0.368;2023-03-31T00:02:17;99342.38;;;12.98;68.95
49461;BME280;35355;49.198;-0.368;2023-03-31T00:04:46;99332.22;;;12.99;69.16
49461;BME280;35355;49.198;-0.368;2023-03-31T00:07:17;99337.69;;;12.99;69.09
49461;BME280;35355;49.198;-0.368;2023-03-31T00:09:47;99338.69;;;13.03;69.29
49461;BME280;35355;49.198;-0.368;2023-03-31T00:12:15;99332.59;;;13.06;69.12
49461;BME280;35355;49.198;-0.368;2023-03-31T00:14:42;99326.16;;;13.11;69.28
49461;BME280;35355;49.198;-0.368;2023-03-31T00:17:09;99323.63;;;13.14;69.08
49461;BME280;35355;49.198;-0.368;2023-03-31T00:19:35;99320.56;;;13.16;69.35
49461;BME280;35355;49.198;-0.368;2023-03-31T00:22:00;99313.97;;;13.17;69.34
49461;BME280;35355;49.198;-0.368;2023-03-31T00:24:27;99317.50;;;13.18;69.29
49461;BME280;35355;49.198;-0.368;2023-03-31T00:26:53;99316.09;;;13.20;69.20
49461;BME280;35355;49.198;-0.368;2023-03-31T00:29:18;99310.28;;;13.22;69.49
49461;BME280;35355;49.198;-0.368;2023-03-31T00:31:44;99303.66;;;13.23;69.33
49461;BME280;35355;49.198;-0.368;2023-03-31T00:34:09;99299.81;;;13.24;69.53
49461;BME280;35355;49.198;-0.368;2023-03-31T00:36:34;99298.38;;;13.26;69.36
49461;BME280;35355;49.198;-0.368;2023-03-31T00:39:03;99287.59;;;13.30;69.49
49461;BME280;35355;49.198;-0.368;2023-03-31T00:41:34;99283.13;;;13.34;69.57
49461;BME280;35355;49.198;-0.368;2023-03-31T00:44:05;99283.63;;;13.36;69.46
49461;BME280;35355;49.198;-0.368;2023-03-31T00:46:45;99251.22;;;13.38;69.21
49461;BME280;35355;49.198;-0.368;2023-03-31T00:49:16;99256.72;;;13.38;69.23
49461;BME280;35355;49.198;-0.368;2023-03-31T00:51:45;99257.50;;;13.39;69.37
49461;BME280;35355;49.198;-0.368;2023-03-31T00:54:12;99237.69;;;13.42;69.30
49461;BME280;35355;49.198;-0.368;2023-03-31T00:56:41;99244.47;;;13.44;69.52
49461;BME280;35355;49.198;-0.368;2023-03-31T00:59:10;99226.91;;;13.45;69.28
49461;BME280;35355;49.198;-0.368;2023-03-31T01:01:38;99235.28;;;13.49;69.28
49461;BME280;35355;49.198;-0.368;2023-03-31T01:04:07;99229.50;;;13.50;69.13
49461;BME280;35355;49.198;-0.368;2023-03-31T01:06:37;99232.88;;;13.47;69.17
49461;BME280;35355;49.198;-0.368;2023-03-31T01:09:06;99224.50;;;13.53;68.97
49461;BME280;35355;49.198;-0.368;2023-03-31T01:11:33;99222.25;;;13.55;68.96
49461;BME280;35355;49.198;-0.368;2023-03-31T01:13:59;99215.00;;;13.59;68.99
49461;BME280;35355;49.198;-0.368;2023-03-31T01:16:25;99221.78;;;13.61;68.99
49461;BME280;35355;49.198;-0.368;2023-03-31T01:18:50;99220.97;;;13.61;69.04
49461;BME280;35355;49.198;-0.368;2023-03-31T01:26:53;99225.00;;;13.63;68.53
49461;BME280;35355;49.198;-0.368;2023-03-31T01:30:32;99207.78;;;13.63;68.65
49461;BME280;35355;49.198;-0.368;2023-03-31T01:36:06;99196.47;;;13.64;68.55
49461;BME280;35355;49.198;-0.368;2023-03-31T01:46:53;99188.72;;;13.58;68.37
49461;BME280;35355;49.198;-0.368;2023-03-31T01:49:33;99183.75;;;13.60;68.45
49461;BME280;35355;49.198;-0.368;2023-03-31T01:52:19;99179.69;;;13.57;68.33
49461;BME280;35355;49.198;-0.368;2023-03-31T01:55:08;99189.53;;;13.58;68.30
49461;BME280;35355;49.198;-0.368;2023-03-31T01:57:46;99184.22;;;13.62;68.43
49461;BME280;35355;49.198;-0.368;2023-03-31T02:00:17;99174.88;;;13.63;68.40
49461;BME280;35355;49.198;-0.368;2023-03-31T02:02:54;99183.09;;;13.63;68.21
49461;BME280;35355;49.198;-0.368;2023-03-31T02:05:30;99157.44;;;13.59;68.27
49461;BME280;35355;49.198;-0.368;2023-03-31T02:08:42;99157.44;;;13.59;68.45
49461;BME280;35355;49.198;-0.368;2023-03-31T02:10:48;99141.97;;;13.54;68.14
49461;BME280;35355;49.198;-0.368;2023-03-31T02:13:15;99138.72;;;13.52;68.04
49461;BME280;35355;49.198;-0.368;2023-03-31T02:15:46;99128.91;;;13.51;68.28
49461;BME280;35355;49.198;-0.368;2023-03-31T02:18:15;99128.72;;;13.47;68.34
49461;BME280;35355;49.198;-0.368;2023-03-31T02:20:46;99130.97;;;13.45;68.15
49461;BME280;35355;49.198;-0.368;2023-03-31T02:23:14;99131.63;;;13.42;68.03
49461;BME280;35355;49.198;-0.368;2023-03-31T02:25:47;99118.56;;;13.39;67.99
49461;BME280;35355;49.198;-0.368;2023-03-31T02:28:20;99117.41;;;13.40;68.10
49461;BME280;35355;49.198;-0.368;2023-03-31T02:33:30;99132.75;;;13.41;67.54
49461;BME280;35355;49.198;-0.368;2023-03-31T02:35:57;99114.03;;;13.43;67.64
49461;BME280;35355;49.198;-0.368;2023-03-31T02:38:23;99102.59;;;13.41;67.83
49461;BME280;35355;49.198;-0.368;2023-03-31T02:40:48;99108.06;;;13.41;67.64
49461;BME280;35355;49.198;-0.368;2023-03-31T02:43:14;99086.63;;;13.43;67.55
49461;BME280;35355;49.198;-0.368;2023-03-31T02:45:47;99109.69;;;13.42;67.28
49461;BME280;35355;49.198;-0.368;2023-03-31T02:48:20;99094.84;;;13.43;67.40
49461;BME280;35355;49.198;-0.368;2023-03-31T03:04:05;99115.84;;;13.48;66.99
49461;BME280;35355;49.198;-0.368;2023-03-31T03:06:42;99124.38;;;13.46;66.71
49461;BME280;35355;49.198;-0.368;2023-03-31T03:17:18;99094.31;;;13.24;66.89
49461;BME280;35355;49.198;-0.368;2023-03-31T03:19:50;99089.81;;;13.19;67.15
49461;BME280;35355;49.198;-0.368;2023-03-31T03:22:15;99088.50;;;13.16;67.63
49461;BME280;35355;49.198;-0.368;2023-03-31T03:24:41;99088.66;;;13.11;67.47
49461;BME280;35355;49.198;-0.368;2023-03-31T03:27:06;99088.47;;;13.08;67.64
49461;BME280;35355;49.198;-0.368;2023-03-31T03:29:32;99070.44;;;13.07;67.62
49461;BME280;35355;49.198;-0.368;2023-03-31T03:31:57;99079.78;;;13.06;67.36
49461;BME280;35355;49.198;-0.368;2023-03-31T03:34:22;99066.88;;;13.06;67.33
49461;BME280;35355;49.198;-0.368;2023-03-31T03:36:50;99060.94;;;13.04;67.14
49461;BME280;35355;49.198;-0.368;2023-03-31T03:39:15;99069.47;;;13.03;67.06
49461;BME280;35355;49.198;-0.368;2023-03-31T03:41:41;99052.84;;;12.99;67.21
49461;BME280;35355;49.198;-0.368;2023-03-31T03:44:06;99061.06;;;12.99;66.78
49461;BME280;35355;49.198;-0.368;2023-03-31T03:46:32;99044.97;;;12.97;66.98
49461;BME280;35355;49.198;-0.368;2023-03-31T03:48:57;99048.84;;;12.96;66.85
49461;BME280;35355;49.198;-0.368;2023-03-31T03:51:22;99030.31;;;12.93;66.72
49461;BME280;35355;49.198;-0.368;2023-03-31T03:53:48;99015.47;;;12.86;66.97
49461;BME280;35355;49.198;-0.368;2023-03-31T03:56:13;99029.00;;;12.91;66.47
49461;BME280;35355;49.198;-0.368;2023-03-31T03:58:39;99020.00;;;12.90;66.65
49461;BME280;35355;49.198;-0.368;2023-03-31T04:01:04;99025.47;;;12.90;66.37
49461;BME280;35355;49.198;-0.368;2023-03-31T04:03:30;99007.91;;;12.91;66.19
49461;BME280;35355;49.198;-0.368;2023-03-31T04:05:56;98999.38;;;12.93;66.17
49461;BME280;35355;49.198;-0.368;2023-03-31T04:08:22;99005.34;;;12.95;66.22
49461;BME280;35355;49.198;-0.368;2023-03-31T04:10:48;98991.66;;;12.95;65.89
49461;BME280;35355;49.198;-0.368;2023-03-31T04:13:15;99002.28;;;12.96;65.63
49461;BME280;35355;49.198;-0.368;2023-03-31T04:15:41;99012.41;;;12.96;65.47
49461;BME280;35355;49.198;-0.368;2023-03-31T04:18:07;98996.31;;;12.94;65.35
49461;BME280;35355;49.198;-0.368;2023-03-31T04:20:37;98981.50;;;12.95;65.15
49461;BME280;35355;49.198;-0.368;2023-03-31T04:23:03;98987.78;;;12.96;64.82
49461;BME280;35355;49.198;-0.368;2023-03-31T04:25:33;98996.81;;;12.96;64.93
49461;BME280;35355;49.198;-0.368;2023-03-31T04:28:03;98978.44;;;12.97;64.88
49461;BME280;35355;49.198;-0.368;2023-03-31T04:30:31;98995.97;;;12.96;64.59
49461;BME280;35355;49.198;-0.368;2023-03-31T04:32:58;98968.91;;;12.94;64.65
49461;BME280;35355;49.198;-0.368;2023-03-31T04:35:26;99000.50;;;12.92;64.56
49461;BME280;35355;49.198;-0.368;2023-03-31T04:37:52;99000.00;;;12.90;64.42
49461;BME280;35355;49.198;-0.368;2023-03-31T04:40:23;99003.88;;;12.89;64.37
49461;BME280;35355;49.198;-0.368;2023-03-31T04:42:49;98990.16;;;12.89;64.38
49461;BME280;35355;49.198;-0.368;2023-03-31T04:45:15;98980.38;;;12.88;64.31
49461;BME280;35355;49.198;-0.368;2023-03-31T04:47:41;98990.81;;;12.86;64.37
49461;BME280;35355;49.198;-0.368;2023-03-31T04:50:08;98990.34;;;12.84;64.17
49461;BME280;35355;49.198;-0.368;2023-03-31T04:52:34;98991.13;;;12.84;64.24
49461;BME280;35355;49.198;-0.368;2023-03-31T04:55:00;98995.81;;;12.84;63.99
49461;BME280;35355;49.198;-0.368;2023-03-31T04:57:25;98988.72;;;12.82;64.10
49461;BME280;35355;49.198;-0.368;2023-03-31T04:59:50;98985.50;;;12.80;64.20
49461;BME280;35355;49.198;-0.368;2023-03-31T05:02:16;98982.28;;;12.78;64.18
49461;BME280;35355;49.198;-0.368;2023-03-31T05:04:48;98979.84;;;12.77;64.40
49461;BME280;35355;49.198;-0.368;2023-03-31T05:07:13;98980.16;;;12.75;64.56
49461;BME280;35355;49.198;-0.368;2023-03-31T05:09:38;98976.97;;;12.73;64.34
49461;BME280;35355;49.198;-0.368;2023-03-31T05:12:04;98979.22;;;12.71;64.59
49461;BME280;35355;49.198;-0.368;2023-03-31T05:14:30;98969.38;;;12.70;64.33
49461;BME280;35355;49.198;-0.368;2023-03-31T05:16:55;98983.38;;;12.69;64.74
49461;BME280;35355;49.198;-0.368;2023-03-31T05:19:22;98996.28;;;12.68;64.62
49461;BME280;35355;49.198;-0.368;2023-03-31T05:21:47;98985.34;;;12.68;64.78
49461;BME280;35355;49.198;-0.368;2023-03-31T05:24:13;98990.81;;;12.68;64.79
49461;BME280;35355;49.198;-0.368;2023-03-31T05:26:38;98977.72;;;12.65;65.05
49461;BME280;35355;49.198;-0.368;2023-03-31T05:29:05;98984.19;;;12.69;64.81
49461;BME280;35355;49.198;-0.368;2023-03-31T05:31:31;98979.84;;;12.68;64.90
49461;BME280;35355;49.198;-0.368;2023-03-31T05:33:56;98978.25;;;12.67;64.98
49461;BME280;35355;49.198;-0.368;2023-03-31T05:36:21;98978.56;;;12.66;64.90
49461;BME280;35355;49.198;-0.368;2023-03-31T05:38:47;98983.72;;;12.67;65.16
49461;BME280;35355;49.198;-0.368;2023-03-31T05:41:13;98979.34;;;12.66;64.91
49461;BME280;35355;49.198;-0.368;2023-03-31T05:43:40;98983.53;;;12.63;65.25
49461;BME280;35355;49.198;-0.368;2023-03-31T05:46:07;98981.94;;;12.62;65.34
49461;BME280;35355;49.198;-0.368;2023-03-31T05:48:33;98985.94;;;12.65;65.37
49461;BME280;35355;49.198;-0.368;2023-03-31T05:50:59;98978.56;;;12.66;65.51
49461;BME280;35355;49.198;-0.368;2023-03-31T05:53:26;98990.31;;;12.66;65.67
49461;BME280;35355;49.198;-0.368;2023-03-31T05:55:59;98971.31;;;12.61;65.27
49461;BME280;35355;49.198;-0.368;2023-03-31T05:58:26;98968.56;;;12.61;65.78
49461;BME280;35355;49.198;-0.368;2023-03-31T06:01:03;98958.75;;;12.60;65.60
49461;BME280;35355;49.198;-0.368;2023-03-31T06:03:31;98960.03;;;12.62;65.40
49461;BME280;35355;49.198;-0.368;2023-03-31T06:05:57;98959.41;;;12.66;65.57
49461;BME280;35355;49.198;-0.368;2023-03-31T06:08:22;98956.16;;;12.63;65.67
49461;BME280;35355;49.198;-0.368;2023-03-31T06:10:48;98969.03;;;12.63;65.43
49461;BME280;35355;49.198;-0.368;2023-03-31T06:13:14;98973.88;;;12.66;65.39
49461;BME280;35355;49.198;-0.368;2023-03-31T06:15:39;98979.34;;;12.66;65.26
49461;BME280;35355;49.198;-0.368;2023-03-31T06:18:04;98952.97;;;12.70;65.56
49461;BME280;35355;49.198;-0.368;2023-03-31T06:20:34;98981.63;;;12.73;65.59
49461;BME280;35355;49.198;-0.368;2023-03-31T06:23:00;98980.81;;;12.72;65.48
49461;BME280;35355;49.198;-0.368;2023-03-31T06:25:25;98986.78;;;12.74;65.46
49461;BME280;35355;49.198;-0.368;2023-03-31T06:27:50;99000.47;;;12.74;65.19
49461;BME280;35355;49.198;-0.368;2023-03-31T06:30:16;98982.09;;;12.75;65.68
49461;BME280;35355;49.198;-0.368;2023-03-31T06:32:41;98972.78;;;12.76;65.19
49461;BME280;35355;49.198;-0.368;2023-03-31T06:35:07;98991.63;;;12.77;65.64
49461;BME280;35355;49.198;-0.368;2023-03-31T06:37:32;98977.09;;;12.77;65.44
49461;BME280;35355;49.198;-0.368;2023-03-31T06:39:58;98962.63;;;12.76;65.66
49461;BME280;35355;49.198;-0.368;2023-03-31T06:42:23;98993.84;;;12.75;65.22
49461;BME280;35355;49.198;-0.368;2023-03-31T06:44:48;98979.69;;;12.73;65.68
49461;BME280;35355;49.198;-0.368;2023-03-31T06:47:14;98993.06;;;12.75;65.34
49461;BME280;35355;49.198;-0.368;2023-03-31T06:49:39;98983.72;;;12.76;65.58
49461;BME280;35355;49.198;-0.368;2023-03-31T06:52:04;98997.09;;;12.77;65.55
49461;BME280;35355;49.198;-0.368;2023-03-31T06:54:30;98992.59;;;12.81;65.50
49461;BME280;35355;49.198;-0.368;2023-03-31T06:56:55;98998.72;;;12.78;65.34
49461;BME280;35355;49.198;-0.368;2023-03-31T06:59:21;99005.78;;;12.79;65.74
49461;BME280;35355;49.198;-0.368;2023-03-31T07:01:46;99015.16;;;12.78;65.44
49461;BME280;35355;49.198;-0.368;2023-03-31T07:04:12;99004.00;;;12.75;65.70
49461;BME280;35355;49.198;-0.368;2023-03-31T07:06:38;98988.38;;;12.75;65.59
49461;BME280;35355;49.198;-0.368;2023-03-31T07:09:03;98993.25;;;12.78;66.04
49461;BME280;35355;49.198;-0.368;2023-03-31T07:11:29;98988.25;;;12.80;65.63
49461;BME280;35355;49.198;-0.368;2023-03-31T07:13:54;98996.94;;;12.82;65.81
49461;BME280;35355;49.198;-0.368;2023-03-31T07:16:19;98995.66;;;12.89;65.86
49461;BME280;35355;49.198;-0.368;2023-03-31T07:18:45;99002.28;;;12.96;65.76
49461;BME280;35355;49.198;-0.368;2023-03-31T07:21:10;98981.81;;;13.03;65.88
49461;BME280;35355;49.198;-0.368;2023-03-31T07:23:36;98982.31;;;13.13;65.54
49461;BME280;35355;49.198;-0.368;2023-03-31T07:26:01;99003.25;;;13.18;65.33
49461;BME280;35355;49.198;-0.368;2023-03-31T07:28:30;98984.25;;;13.22;65.29
49461;BME280;35355;49.198;-0.368;2023-03-31T07:30:55;98961.50;;;13.21;64.91
49461;BME280;35355;49.198;-0.368;2023-03-31T07:33:21;98988.28;;;13.24;64.75
49461;BME280;35355;49.198;-0.368;2023-03-31T07:35:46;99022.75;;;13.25;64.42
49461;BME280;35355;49.198;-0.368;2023-03-31T07:38:11;99006.00;;;13.27;64.55
49461;BME280;35355;49.198;-0.368;2023-03-31T07:40:38;99042.13;;;13.29;64.43
49461;BME280;35355;49.198;-0.368;2023-03-31T07:43:04;99037.09;;;13.31;64.58
49461;BME280;35355;49.198;-0.368;2023-03-31T07:45:31;99037.09;;;13.31;64.40
49461;BME280;35355;49.198;-0.368;2023-03-31T07:47:56;99021.47;;;13.31;64.34
49461;BME280;35355;49.198;-0.368;2023-03-31T07:50:22;99025.03;;;13.32;64.32
49461;BME280;35355;49.198;-0.368;2023-03-31T07:52:49;99030.00;;;13.30;64.37
49461;BME280;35355;49.198;-0.368;2023-03-31T07:55:15;99029.69;;;13.31;64.45
49461;BME280;35355;49.198;-0.368;2023-03-31T07:57:40;99031.00;;;13.34;64.77
49461;BME280;35355;49.198;-0.368;2023-03-31T08:00:07;99019.41;;;13.37;64.37
49461;BME280;35355;49.198;-0.368;2023-03-31T08:02:34;99010.06;;;13.38;64.45
49461;BME280;35355;49.198;-0.368;2023-03-31T08:05:00;98984.44;;;13.43;64.08
49461;BME280;35355;49.198;-0.368;2023-03-31T08:07:26;99013.78;;;13.51;64.00
49461;BME280;35355;49.198;-0.368;2023-03-31T08:09:55;99010.53;;;13.58;63.92
49461;BME280;35355;49.198;-0.368;2023-03-31T08:12:21;99015.03;;;13.62;63.60
49461;BME280;35355;49.198;-0.368;2023-03-31T08:14:46;99010.69;;;13.61;63.60
49461;BME280;35355;49.198;-0.368;2023-03-31T08:17:11;99028.91;;;13.66;63.31
49461;BME280;35355;49.198;-0.368;2023-03-31T08:19:37;99010.84;;;13.65;63.31
49461;BME280;35355;49.198;-0.368;2023-03-31T08:22:02;99021.81;;;13.65;63.16
49461;BME280;35355;49.198;-0.368;2023-03-31T08:24:27;99028.41;;;13.64;62.97
49461;BME280;35355;49.198;-0.368;2023-03-31T08:26:53;99028.91;;;13.66;62.95
49461;BME280;35355;49.198;-0.368;2023-03-31T08:29:19;99026.16;;;13.66;62.91
49461;BME280;35355;49.198;-0.368;2023-03-31T08:31:44;99032.44;;;13.66;62.65
49461;BME280;35355;49.198;-0.368;2023-03-31T08:34:09;99031.97;;;13.64;62.66
49461;BME280;35355;49.198;-0.368;2023-03-31T08:36:35;99012.63;;;13.61;62.43
49461;BME280;35355;49.198;-0.368;2023-03-31T08:39:00;99035.19;;;13.58;62.42
49461;BME280;35355;49.198;-0.368;2023-03-31T08:44:23;99035.06;;;13.54;62.58
49461;BME280;35355;49.198;-0.368;2023-03-31T08:46:51;99052.63;;;13.53;62.45
49461;BME280;35355;49.198;-0.368;2023-03-31T08:49:20;99045.84;;;13.50;62.40
49461;BME280;35355;49.198;-0.368;2023-03-31T08:51:50;99061.81;;;13.48;62.52
49461;BME280;35355;49.198;-0.368;2023-03-31T08:54:24;99038.78;;;13.49;62.70
49461;BME280;35355;49.198;-0.368;2023-03-31T08:56:51;99063.13;;;13.51;62.33
49461;BME280;35355;49.198;-0.368;2023-03-31T08:59:26;99048.91;;;13.49;62.65
49461;BME280;35355;49.198;-0.368;2023-03-31T09:04:49;99074.88;;;13.51;62.52
49461;BME280;35355;49.198;-0.368;2023-03-31T09:08:12;99073.91;;;13.47;62.74
49461;BME280;35355;49.198;-0.368;2023-03-31T09:10:55;99100.00;;;13.45;63.00
49461;BME280;35355;49.198;-0.368;2023-03-31T09:13:31;99078.41;;;13.43;62.86
49461;BME280;35355;49.198;-0.368;2023-03-31T09:16:15;99065.03;;;13.42;62.95
49461;BME280;35355;49.198;-0.368;2023-03-31T09:18:43;99069.06;;;13.44;63.09
49461;BME280;35355;49.198;-0.368;2023-03-31T09:21:13;99065.69;;;13.47;62.55
49461;BME280;35355;49.198;-0.368;2023-03-31T09:23:49;99071.66;;;13.49;62.80
49461;BME280;35355;49.198;-0.368;2023-03-31T09:26:27;99076.97;;;13.55;62.90
49461;BME280;35355;49.198;-0.368;2023-03-31T09:28:58;99073.75;;;13.61;62.61
49461;BME280;35355;49.198;-0.368;2023-03-31T09:31:27;99076.31;;;13.66;62.63
49461;BME280;35355;49.198;-0.368;2023-03-31T09:33:58;99083.56;;;13.71;62.94
49461;BME280;35355;49.198;-0.368;2023-03-31T09:36:26;99069.72;;;13.76;62.92
49461;BME280;35355;49.198;-0.368;2023-03-31T09:38:51;99091.97;;;13.75;63.22
49461;BME280;35355;49.198;-0.368;2023-03-31T09:41:17;99104.53;;;13.67;62.79
49461;BME280;35355;49.198;-0.368;2023-03-31T09:43:45;99101.00;;;13.58;63.12
49461;BME280;35355;49.198;-0.368;2023-03-31T09:46:20;99111.63;;;13.50;63.55
49461;BME280;35355;49.198;-0.368;2023-03-31T09:48:59;99106.13;;;13.42;63.62
49461;BME280;35355;49.198;-0.368;2023-03-31T09:51:29;99102.25;;;13.34;63.97
49461;BME280;35355;49.198;-0.368;2023-03-31T09:54:24;99103.50;;;13.28;64.24
49461;BME280;35355;49.198;-0.368;2023-03-31T09:56:53;99090.94;;;13.27;64.70
49461;BME280;35355;49.198;-0.368;2023-03-31T10:01:57;99100.13;;;13.22;65.04
49461;BME280;35355;49.198;-0.368;2023-03-31T10:04:29;99105.91;;;13.21;65.06
49461;BME280;35355;49.198;-0.368;2023-03-31T10:06:58;99105.59;;;13.22;65.53
49461;BME280;35355;49.198;-0.368;2023-03-31T10:09:32;99113.50;;;13.24;65.36
49461;BME280;35355;49.198;-0.368;2023-03-31T10:12:04;99108.66;;;13.21;65.37
49461;BME280;35355;49.198;-0.368;2023-03-31T10:14:41;99109.44;;;13.21;65.38
49461;BME280;35355;49.198;-0.368;2023-03-31T10:17:16;99139.47;;;13.26;65.29
49461;BME280;35355;49.198;-0.368;2023-03-31T10:19:50;99112.84;;;13.27;65.38
49461;BME280;35355;49.198;-0.368;2023-03-31T10:22:29;99123.50;;;13.28;65.35
49461;BME280;35355;49.198;-0.368;2023-03-31T10:25:17;99122.22;;;13.26;65.03
49461;BME280;35355;49.198;-0.368;2023-03-31T10:27:47;99125.28;;;13.24;65.07
49461;BME280;35355;49.198;-0.368;2023-03-31T10:30:30;99121.25;;;13.22;65.34
49461;BME280;35355;49.198;-0.368;2023-03-31T10:33:00;99126.88;;;13.25;65.37
49461;BME280;35355;49.198;-0.368;2023-03-31T10:35:32;99146.72;;;13.31;65.66
49461;BME280;35355;49.198;-0.368;2023-03-31T10:38:04;99140.16;;;13.41;65.68
49461;BME280;35355;49.198;-0.368;2023-03-31T10:40:32;99148.56;;;13.53;65.33
49461;BME280;35355;49.198;-0.368;2023-03-31T10:43:03;99123.91;;;13.62;64.87
49461;BME280;35355;49.198;-0.368;2023-03-31T10:45:36;99141.16;;;13.71;64.59
49461;BME280;35355;49.198;-0.368;2023-03-31T10:48:02;99133.25;;;13.78;64.21
49461;BME280;35355;49.198;-0.368;2023-03-31T10:50:33;99127.63;;;13.83;64.01
49461;BME280;35355;49.198;-0.368;2023-03-31T10:53:04;99135.66;;;13.89;63.73
49461;BME280;35355;49.198;-0.368;2023-03-31T10:55:35;99139.53;;;13.96;63.68
49461;BME280;35355;49.198;-0.368;2023-03-31T11:00:54;99176.31;;;14.13;64.05
49461;BME280;35355;49.198;-0.368;2023-03-31T11:04:28;99156.63;;;14.19;62.75
49461;BME280;35355;49.198;-0.368;2023-03-31T11:09:32;99174.53;;;14.26;62.57
49461;BME280;35355;49.198;-0.368;2023-03-31T11:15:02;99173.41;;;14.27;62.01
49461;BME280;35355;49.198;-0.368;2023-03-31T11:17:55;99167.09;;;14.35;62.88
49461;BME280;35355;49.198;-0.368;2023-03-31T11:20:29;99175.31;;;14.44;61.91
49461;BME280;35355;49.198;-0.368;2023-03-31T11:26:01;99142.53;;;14.47;61.03
49461;BME280;35355;49.198;-0.368;2023-03-31T11:28:44;99201.63;;;14.45;60.77
49461;BME280;35355;49.198;-0.368;2023-03-31T11:34:19;99205.50;;;14.44;60.67
49461;BME280;35355;49.198;-0.368;2023-03-31T11:37:46;99203.41;;;14.49;60.75
49461;BME280;35355;49.198;-0.368;2023-03-31T11:42:12;99198.03;;;14.79;60.11
49461;BME280;35355;49.198;-0.368;2023-03-31T11:44:43;99200.41;;;14.89;59.84
49461;BME280;35355;49.198;-0.368;2023-03-31T11:47:15;99214.44;;;14.97;60.04
49461;BME280;35355;49.198;-0.368;2023-03-31T11:49:55;99208.94;;;15.05;59.60
49461;BME280;35355;49.198;-0.368;2023-03-31T11:52:27;99232.19;;;15.08;59.29
49461;BME280;35355;49.198;-0.368;2023-03-31T11:54:57;99222.84;;;15.09;58.83
49461;BME280;35355;49.198;-0.368;2023-03-31T11:57:29;99225.09;;;15.07;58.43
49461;BME280;35355;49.198;-0.368;2023-03-31T12:00:19;99232.53;;;15.06;58.44
49461;BME280;35355;49.198;-0.368;2023-03-31T12:03:07;99233.97;;;15.04;58.94
49461;BME280;35355;49.198;-0.368;2023-03-31T12:05:40;99212.50;;;15.06;58.29
49461;BME280;35355;49.198;-0.368;2023-03-31T12:10:53;99242.22;;;15.04;58.05
49461;BME280;35355;49.198;-0.368;2023-03-31T12:18:41;99242.06;;;15.09;58.68
49461;BME280;35355;49.198;-0.368;2023-03-31T12:21:09;99244.66;;;15.05;58.09
49461;BME280;35355;49.198;-0.368;2023-03-31T12:23:42;99278.63;;;15.01;58.10
49461;BME280;35355;49.198;-0.368;2023-03-31T12:29:35;99253.75;;;14.88;58.40
49461;BME280;35355;49.198;-0.368;2023-03-31T12:32:03;99255.69;;;14.88;58.25
49461;BME280;35355;49.198;-0.368;2023-03-31T12:34:30;99246.19;;;14.85;58.36
49461;BME280;35355;49.198;-0.368;2023-03-31T13:06:57;99297.09;;;14.65;57.95
49461;BME280;35355;49.198;-0.368;2023-03-31T13:08:58;99287.41;;;14.68;57.91
49461;BME280;35355;49.198;-0.368;2023-03-31T13:14:22;99307.94;;;14.62;58.19
49461;BME280;35355;49.198;-0.368;2023-03-31T13:16:49;99313.44;;;14.62;57.83
49461;BME280;35355;49.198;-0.368;2023-03-31T13:19:32;99313.72;;;14.60;58.40
49461;BME280;35355;49.198;-0.368;2023-03-31T13:22:00;99305.66;;;14.64;58.22
49461;BME280;35355;49.198;-0.368;2023-03-31T13:24:28;99305.00;;;14.67;58.05
49461;BME280;35355;49.198;-0.368;2023-03-31T13:26:55;99304.34;;;14.70;58.12
49461;BME280;35355;49.198;-0.368;2023-03-31T13:29:42;99290.16;;;14.68;57.95
49461;BME280;35355;49.198;-0.368;2023-03-31T13:32:21;99322.13;;;14.64;58.35
49461;BME280;35355;49.198;-0.368;2023-03-31T13:35:05;99320.50;;;14.63;58.10
49461;BME280;35355;49.198;-0.368;2023-03-31T13:38:00;99310.00;;;14.56;58.43
49461;BME280;35355;49.198;-0.368;2023-03-31T14:05:38;99350.56;;;14.85;57.83
49461;BME280;35355;49.198;-0.368;2023-03-31T14:08:23;99324.69;;;14.86;58.20
49461;BME280;35355;49.198;-0.368;2023-03-31T14:10:54;99330.69;;;14.88;57.46
49461;BME280;35355;49.198;-0.368;2023-03-31T14:13:39;99331.81;;;14.87;57.45
49461;BME280;35355;49.198;-0.368;2023-03-31T14:16:04;99347.31;;;14.83;57.41
49461;BME280;35355;49.198;-0.368;2023-03-31T14:18:32;99333.13;;;14.81;57.49
49461;BME280;35355;49.198;-0.368;2023-03-31T14:32:38;99350.25;;;14.78;57.93
49461;BME280;35355;49.198;-0.368;2023-03-31T14:35:30;99353.47;;;14.80;58.06
49461;BME280;35355;49.198;-0.368;2023-03-31T14:37:58;99358.97;;;14.80;57.58
49461;BME280;35355;49.198;-0.368;2023-03-31T14:40:27;99352.81;;;14.83;57.67
49461;BME280;35355;49.198;-0.368;2023-03-31T14:42:53;99359.94;;;14.84;57.75
49461;BME280;35355;49.198;-0.368;2023-03-31T14:45:24;99366.41;;;14.88;57.56
49461;BME280;35355;49.198;-0.368;2023-03-31T14:47:58;99353.13;;;14.90;57.89
49461;BME280;35355;49.198;-0.368;2023-03-31T14:50:29;99367.38;;;14.93;57.58
49461;BME280;35355;49.198;-0.368;2023-03-31T14:52:55;99377.72;;;14.96;57.69
49461;BME280;35355;49.198;-0.368;2023-03-31T14:55:30;99361.56;;;14.94;57.67
49461;BME280;35355;49.198;-0.368;2023-03-31T14:57:58;99379.16;;;14.93;57.15
49461;BME280;35355;49.198;-0.368;2023-03-31T15:00:31;99382.38;;;14.86;57.23
49461;BME280;35355;49.198;-0.368;2023-03-31T15:02:59;99365.09;;;14.77;56.64
49461;BME280;35355;49.198;-0.368;2023-03-31T15:05:31;99381.25;;;14.70;57.46
49461;BME280;35355;49.198;-0.368;2023-03-31T15:08:10;99381.91;;;14.67;57.72
49461;BME280;35355;49.198;-0.368;2023-03-31T15:10:39;99373.19;;;14.65;57.63
49461;BME280;35355;49.198;-0.368;2023-03-31T15:13:09;99395.81;;;14.62;57.97
49461;BME280;35355;49.198;-0.368;2023-03-31T15:15:35;99400.16;;;14.63;58.22
49461;BME280;35355;49.198;-0.368;2023-03-31T15:18:01;99391.91;;;14.63;58.24
49461;BME280;35355;49.198;-0.368;2023-03-31T15:20:34;99395.28;;;14.60;58.21
49461;BME280;35355;49.198;-0.368;2023-03-31T15:23:02;99384.13;;;14.56;58.10
49461;BME280;35355;49.198;-0.368;2023-03-31T15:25:31;99387.22;;;14.54;58.15
49461;BME280;35355;49.198;-0.368;2023-03-31T15:28:11;99395.59;;;14.49;58.33
49461;BME280;35355;49.198;-0.368;2023-03-31T15:30:39;99403.19;;;14.52;58.38
49461;BME280;35355;49.198;-0.368;2023-03-31T15:33:07;99393.97;;;14.57;58.25